createdAt,value
2022-11-06T00:01:48.745Z,10.52
2022-11-06T00:07:09.183Z,10.45
2022-11-06T00:12:29.799Z,10.37
2022-11-06T00:17:50.774Z,10.37
2022-11-06T00:23:11.055Z,10.32
2022-11-06T00:28:31.626Z,10.31
2022-11-06T00:33:53.727Z,10.26
2022-11-06T00:39:14.594Z,9.99
2022-11-06T00:44:34.883Z,9.85
2022-11-06T00:49:55.315Z,9.76
2022-11-06T00:55:15.925Z,9.71
2022-11-06T01:00:36.392Z,9.73
2022-11-06T01:06:04.346Z,9.76
2022-11-06T01:11:29.508Z,9.82
2022-11-06T01:16:54.721Z,9.86
2022-11-06T01:22:15.863Z,9.91
2022-11-06T01:27:36.397Z,10.00
2022-11-06T01:32:56.770Z,10.01
2022-11-06T01:38:17.872Z,10.02
2022-11-06T01:43:47.517Z,10.00
2022-11-06T01:49:14.011Z,10.05
2022-11-06T01:54:38.142Z,10.08
2022-11-06T01:59:58.883Z,10.10
2022-11-06T02:05:19.775Z,10.13
2022-11-06T02:10:42.521Z,10.14
2022-11-06T02:16:39.090Z,10.19
2022-11-06T02:22:18.960Z,10.22
2022-11-06T02:27:44.332Z,10.26
2022-11-06T02:33:09.105Z,10.33
2022-11-06T02:38:38.151Z,10.44
2022-11-06T02:44:02.818Z,10.53
2022-11-06T02:49:30.295Z,10.62
2022-11-06T02:55:04.149Z,10.66
2022-11-06T03:00:27.683Z,10.78
2022-11-06T03:06:06.828Z,10.83
2022-11-06T03:11:40.307Z,10.90
2022-11-06T03:17:16.688Z,10.91
2022-11-06T03:22:55.648Z,10.99
2022-11-06T03:28:33.192Z,11.05
2022-11-06T03:34:08.157Z,11.10
2022-11-06T03:39:37.792Z,11.13
2022-11-06T03:45:05.568Z,11.15
2022-11-06T03:50:31.392Z,11.18
2022-11-06T03:56:05.030Z,11.21
2022-11-06T04:01:29.534Z,11.23
2022-11-06T04:06:58.366Z,11.20
2022-11-06T04:12:42.682Z,11.24
2022-11-06T04:18:03.214Z,11.25
2022-11-06T04:24:09.690Z,11.21
2022-11-06T04:30:02.864Z,11.21
2022-11-06T04:35:40.130Z,11.19
2022-11-06T04:41:12.208Z,11.16
2022-11-06T04:46:39.839Z,11.13
2022-11-06T04:52:02.669Z,11.16
2022-11-06T04:57:23.977Z,11.23
2022-11-06T05:02:45.842Z,11.26
2022-11-06T05:08:07.129Z,11.24
2022-11-06T05:13:28.433Z,11.29
2022-11-06T05:18:49.995Z,11.28
2022-11-06T05:24:10.854Z,11.32
2022-11-06T05:29:31.250Z,11.34
2022-11-06T05:34:51.671Z,11.37
2022-11-06T05:40:12.940Z,11.38
2022-11-06T05:45:33.583Z,11.41
2022-11-06T05:51:00.260Z,11.40
2022-11-06T05:56:20.590Z,11.44
2022-11-06T06:01:41.017Z,11.48
2022-11-06T06:07:01.730Z,11.49
2022-11-06T06:12:24.614Z,11.52
2022-11-06T06:17:48.238Z,11.57
2022-11-06T06:23:09.820Z,11.59
2022-11-06T06:28:30.439Z,11.53
2022-11-06T06:33:51.067Z,11.50
2022-11-06T06:39:11.501Z,11.53
2022-11-06T06:44:32.675Z,11.56
2022-11-06T06:49:53.055Z,11.55
2022-11-06T06:55:14.622Z,11.56
2022-11-06T07:00:35.773Z,11.55
2022-11-06T07:05:59.669Z,11.54
2022-11-06T07:11:20.420Z,11.52
2022-11-06T07:16:41.173Z,11.47
2022-11-06T07:22:01.671Z,11.45
2022-11-06T07:27:22.501Z,11.43
2022-11-06T07:32:43.503Z,11.43
2022-11-06T07:38:06.766Z,11.45
2022-11-06T07:43:27.727Z,11.47
2022-11-06T07:48:48.528Z,11.51
2022-11-06T07:54:11.263Z,11.52
2022-11-06T07:59:34.655Z,11.52
2022-11-06T08:04:55.583Z,11.52
2022-11-06T08:10:16.359Z,11.54
2022-11-06T08:15:38.444Z,11.51
2022-11-06T08:20:58.905Z,11.47
2022-11-06T08:26:19.774Z,11.49
2022-11-06T08:31:40.432Z,11.59
2022-11-06T08:37:00.990Z,11.59
2022-11-06T08:42:22.018Z,11.57
2022-11-06T08:47:42.831Z,11.56
2022-11-06T08:53:06.278Z,11.56
2022-11-06T08:58:27.067Z,11.59
2022-11-06T09:03:48.071Z,11.57
2022-11-06T09:09:09.629Z,11.53
2022-11-06T09:14:30.216Z,11.51
2022-11-06T09:19:51.594Z,11.49
2022-11-06T09:25:12.857Z,11.50
2022-11-06T09:30:33.402Z,11.56
2022-11-06T09:35:55.840Z,11.50
2022-11-06T09:41:35.345Z,11.40
2022-11-06T09:47:00.975Z,11.31
2022-11-06T09:52:21.647Z,11.25
2022-11-06T09:57:54.339Z,11.19
2022-11-06T10:03:40.189Z,11.13
2022-11-06T10:09:03.424Z,11.06
2022-11-06T10:14:36.220Z,10.99
2022-11-06T10:20:10.091Z,10.95
2022-11-06T10:26:04.819Z,10.94
2022-11-06T10:31:46.265Z,11.07
2022-11-06T10:37:19.348Z,11.15
2022-11-06T10:42:41.360Z,11.32
2022-11-06T10:48:19.788Z,11.38
2022-11-06T10:54:02.096Z,11.37
2022-11-06T10:59:22.470Z,11.40
2022-11-06T11:04:44.026Z,11.31
2022-11-06T11:10:23.114Z,11.21
2022-11-06T11:15:45.625Z,11.14
2022-11-06T11:21:25.515Z,10.99
2022-11-06T11:26:52.644Z,10.79
2022-11-06T11:32:18.775Z,10.75
2022-11-06T11:37:40.308Z,10.69
2022-11-06T11:43:23.322Z,10.62
2022-11-06T11:48:45.238Z,10.56
2022-11-06T11:54:11.617Z,10.43
2022-11-06T11:59:41.357Z,10.41
2022-11-06T12:05:13.197Z,10.40
2022-11-06T12:10:44.469Z,10.41
2022-11-06T12:16:13.669Z,10.36
2022-11-06T12:21:39.558Z,10.34
2022-11-06T12:27:08.053Z,10.29
2022-11-06T12:32:38.683Z,10.30
2022-11-06T12:38:02.043Z,10.35
2022-11-06T12:43:37.647Z,10.26
2022-11-06T12:49:22.579Z,10.26
2022-11-06T12:54:53.852Z,10.20
2022-11-06T13:00:31.517Z,10.15
2022-11-06T13:06:05.980Z,10.19
2022-11-06T13:11:47.558Z,10.18
2022-11-06T13:17:25.267Z,10.15
2022-11-06T13:22:58.972Z,10.18
2022-11-06T13:28:28.415Z,10.19
2022-11-06T13:33:56.590Z,10.20
2022-11-06T13:39:41.352Z,10.20
2022-11-06T13:45:03.505Z,10.16
2022-11-06T13:50:59.170Z,10.19
2022-11-06T13:56:59.252Z,10.21
2022-11-06T14:02:40.891Z,10.20
2022-11-06T14:08:07.160Z,10.16
2022-11-06T14:13:32.367Z,10.17
2022-11-06T14:18:59.157Z,10.18
2022-11-06T14:24:19.677Z,10.19
2022-11-06T14:29:40.374Z,10.19
2022-11-06T14:35:29.596Z,10.17
2022-11-06T14:40:50.301Z,10.20
2022-11-06T14:46:22.637Z,10.22
2022-11-06T14:51:44.133Z,10.29
2022-11-06T14:57:05.007Z,10.26
2022-11-06T15:02:30.073Z,10.25
2022-11-06T15:08:08.060Z,10.26
2022-11-06T15:13:30.968Z,10.20
2022-11-06T15:18:51.998Z,10.15
2022-11-06T15:24:19.363Z,10.11
2022-11-06T15:29:42.650Z,10.11
2022-11-06T15:35:13.074Z,10.10
2022-11-06T15:40:37.249Z,10.15
2022-11-06T15:46:07.341Z,10.32
2022-11-06T15:51:29.283Z,10.32
2022-11-06T15:56:50.178Z,10.42
2022-11-06T16:02:22.933Z,10.47
2022-11-06T16:07:45.867Z,10.48
2022-11-06T16:13:07.241Z,10.52
2022-11-06T16:18:42.585Z,10.48
2022-11-06T16:24:12.449Z,10.41
2022-11-06T16:29:33.585Z,10.35
2022-11-06T16:34:55.284Z,10.35
2022-11-06T16:40:49.459Z,10.43
2022-11-06T16:46:10.101Z,10.47
2022-11-06T16:51:32.677Z,10.52
2022-11-06T16:56:53.355Z,10.53
2022-11-06T17:02:22.736Z,10.49
2022-11-06T17:07:45.502Z,10.53
2022-11-06T17:13:32.508Z,10.57
2022-11-06T17:18:53.477Z,10.59
2022-11-06T17:29:57.817Z,10.65
2022-11-06T17:35:18.457Z,10.64
2022-11-06T17:40:39.294Z,10.64
2022-11-06T17:46:01.271Z,10.64
2022-11-06T17:51:41.563Z,10.68
2022-11-06T17:57:07.588Z,10.71
2022-11-06T18:02:54.795Z,10.65
2022-11-06T18:08:12.898Z,10.57
2022-11-06T18:13:34.698Z,10.62
2022-11-06T18:18:56.486Z,10.52
2022-11-06T18:24:17.532Z,10.45
2022-11-06T18:29:38.224Z,10.46
2022-11-06T18:34:58.847Z,10.43
2022-11-06T18:40:19.511Z,10.47
2022-11-06T18:45:40.431Z,10.55
2022-11-06T18:51:11.717Z,10.49
2022-11-06T18:56:33.655Z,10.41
2022-11-06T19:01:54.608Z,10.32
2022-11-06T19:07:15.676Z,10.28
2022-11-06T19:12:36.898Z,10.25
2022-11-06T19:17:57.488Z,10.26
2022-11-06T19:23:17.848Z,10.21
2022-11-06T19:28:39.820Z,10.12
2022-11-06T19:34:01.499Z,10.04
2022-11-06T19:39:22.530Z,9.86
2022-11-06T19:44:42.969Z,9.79
2022-11-06T19:50:04.045Z,9.71
2022-11-06T19:55:27.686Z,9.55
2022-11-06T20:00:49.143Z,9.47
2022-11-06T20:06:09.988Z,9.44
2022-11-06T20:11:56.338Z,9.30
2022-11-06T20:17:18.155Z,9.16
2022-11-06T20:22:39.432Z,8.99
2022-11-06T20:28:00.178Z,8.67
2022-11-06T20:33:21.264Z,7.96
2022-11-06T20:38:42.681Z,7.61
2022-11-06T20:44:03.376Z,7.54
2022-11-06T20:49:23.928Z,7.50
2022-11-06T20:54:47.546Z,7.59
2022-11-06T21:00:09.376Z,7.70
2022-11-06T21:05:29.937Z,7.80
2022-11-06T21:11:03.308Z,7.86
2022-11-06T21:16:29.874Z,7.92
2022-11-06T21:21:51.743Z,7.97
2022-11-06T21:27:12.381Z,7.92
2022-11-06T21:32:34.008Z,7.92
2022-11-06T21:37:54.519Z,7.87
2022-11-06T21:43:15.244Z,7.87
2022-11-06T21:48:52.297Z,7.90
2022-11-06T21:54:32.091Z,7.91
2022-11-06T21:59:52.741Z,7.93
2022-11-06T22:05:13.521Z,7.94
2022-11-06T22:10:34.635Z,7.97
2022-11-06T22:15:55.091Z,8.01
2022-11-06T22:21:18.685Z,8.04
2022-11-06T22:26:39.879Z,8.11
2022-11-06T22:32:00.414Z,8.11
2022-11-06T22:37:21.147Z,8.11
2022-11-06T22:42:42.868Z,8.13
2022-11-06T22:48:05.459Z,8.20
2022-11-06T22:53:25.897Z,8.24
2022-11-06T22:58:46.718Z,8.27
2022-11-06T23:04:14.922Z,8.30
2022-11-06T23:09:35.767Z,8.32
2022-11-06T23:14:58.551Z,8.37
2022-11-06T23:20:20.351Z,8.44
2022-11-06T23:25:41.071Z,8.52
2022-11-06T23:31:06.828Z,8.55
2022-11-06T23:36:27.436Z,8.62
2022-11-06T23:41:47.731Z,8.72
2022-11-06T23:47:08.317Z,8.81
2022-11-06T23:52:28.854Z,8.92
2022-11-06T23:57:49.492Z,9.03
